sensor_id;sensor_type;location;lat;lon;timestamp;pressure;altitude;pressure_sealevel;temperature;humidity
47592;BME280;33317;33.356;-117.184;2023-12-14T00:00:37;99202.21;;;29.84;22.32
47592;BME280;33317;33.356;-117.184;2023-12-14T00:03:05;99206.01;;;30.07;22.25
47592;BME280;33317;33.356;-117.184;2023-12-14T00:05:33;99213.14;;;29.88;22.24
47592;BME280;33317;33.356;-117.184;2023-12-14T00:08:02;99209.64;;;30.09;22.20
47592;BME280;33317;33.356;-117.184;2023-12-14T00:10:30;99218.82;;;30.08;22.20
47592;BME280;33317;33.356;-117.184;2023-12-14T00:12:59;99222.26;;;30.06;22.28
47592;BME280;33317;33.356;-117.184;2023-12-14T00:15:27;99224.05;;;30.05;22.30
47592;BME280;33317;33.356;-117.184;2023-12-14T00:17:55;99225.57;;;30.00;22.36
47592;BME280;33317;33.356;-117.184;2023-12-14T00:20:24;99225.64;;;29.74;22.35
47592;BME280;33317;33.356;-117.184;2023-12-14T00:22:52;99231.69;;;30.17;22.42
47592;BME280;33317;33.356;-117.184;2023-12-14T00:25:20;99238.22;;;29.82;22.50
47592;BME280;33317;33.356;-117.184;2023-12-14T00:27:49;99242.77;;;29.77;22.53
47592;BME280;33317;33.356;-117.184;2023-12-14T00:30:17;99247.48;;;29.99;22.55
47592;BME280;33317;33.356;-117.184;2023-12-14T00:32:46;99251.48;;;29.66;22.63
47592;BME280;33317;33.356;-117.184;2023-12-14T00:35:14;99254.11;;;29.79;23.05
47592;BME280;33317;33.356;-117.184;2023-12-14T00:37:42;99252.45;;;29.52;22.97
47592;BME280;33317;33.356;-117.184;2023-12-14T00:40:12;99259.84;;;29.74;22.95
47592;BME280;33317;33.356;-117.184;2023-12-14T00:42:40;99265.35;;;29.42;22.94
47592;BME280;33317;33.356;-117.184;2023-12-14T00:45:09;99267.22;;;29.64;22.94
47592;BME280;33317;33.356;-117.184;2023-12-14T00:47:38;99270.95;;;29.57;22.97
47592;BME280;33317;33.356;-117.184;2023-12-14T00:50:07;99276.07;;;29.46;23.04
47592;BME280;33317;33.356;-117.184;2023-12-14T00:52:36;99282.00;;;29.38;23.15
47592;BME280;33317;33.356;-117.184;2023-12-14T00:55:05;99283.00;;;29.31;23.22
47592;BME280;33317;33.356;-117.184;2023-12-14T00:57:33;99281.99;;;29.25;23.26
47592;BME280;33317;33.356;-117.184;2023-12-14T01:00:02;99280.77;;;29.56;23.42
47592;BME280;33317;33.356;-117.184;2023-12-14T01:02:30;99282.31;;;29.00;23.55
47592;BME280;33317;33.356;-117.184;2023-12-14T01:04:58;99287.71;;;29.23;23.53
47592;BME280;33317;33.356;-117.184;2023-12-14T01:07:27;99287.70;;;28.97;23.62
47592;BME280;33317;33.356;-117.184;2023-12-14T01:09:55;99291.64;;;28.92;23.70
47592;BME280;33317;33.356;-117.184;2023-12-14T01:12:24;99296.06;;;28.83;23.69
47592;BME280;33317;33.356;-117.184;2023-12-14T01:14:52;99299.51;;;28.79;23.71
47592;BME280;33317;33.356;-117.184;2023-12-14T01:17:20;99303.50;;;28.95;23.73
47592;BME280;33317;33.356;-117.184;2023-12-14T01:19:49;99303.24;;;28.64;23.83
47592;BME280;33317;33.356;-117.184;2023-12-14T01:22:17;99303.66;;;28.98;23.83
47592;BME280;33317;33.356;-117.184;2023-12-14T01:24:45;99309.63;;;28.71;23.95
47592;BME280;33317;33.356;-117.184;2023-12-14T01:27:15;99313.52;;;28.44;24.10
47592;BME280;33317;33.356;-117.184;2023-12-14T01:29:43;99313.58;;;28.80;24.22
47592;BME280;33317;33.356;-117.184;2023-12-14T01:32:11;99318.35;;;28.54;24.30
47592;BME280;33317;33.356;-117.184;2023-12-14T01:34:40;99320.68;;;28.46;24.43
47592;BME280;33317;33.356;-117.184;2023-12-14T01:37:08;99325.85;;;28.62;24.45
47592;BME280;33317;33.356;-117.184;2023-12-14T01:39:36;99327.73;;;28.54;24.56
47592;BME280;33317;33.356;-117.184;2023-12-14T01:42:05;99332.69;;;28.44;24.69
47592;BME280;33317;33.356;-117.184;2023-12-14T01:44:33;99332.05;;;28.45;24.68
47592;BME280;33317;33.356;-117.184;2023-12-14T01:47:02;99331.72;;;28.41;24.70
47592;BME280;33317;33.356;-117.184;2023-12-14T01:49:31;99332.41;;;28.35;24.94
47592;BME280;33317;33.356;-117.184;2023-12-14T01:51:59;99334.79;;;27.88;24.93
47592;BME280;33317;33.356;-117.184;2023-12-14T01:54:28;99341.35;;;28.30;24.94
47592;BME280;33317;33.356;-117.184;2023-12-14T01:56:57;99339.71;;;28.30;24.89
47592;BME280;33317;33.356;-117.184;2023-12-14T01:59:25;99342.71;;;28.21;25.11
47592;BME280;33317;33.356;-117.184;2023-12-14T02:01:55;99346.68;;;28.18;25.06
47592;BME280;33317;33.356;-117.184;2023-12-14T02:04:25;99351.60;;;28.15;25.10
47592;BME280;33317;33.356;-117.184;2023-12-14T02:06:54;99353.81;;;28.12;25.09
47592;BME280;33317;33.356;-117.184;2023-12-14T02:09:22;99352.52;;;28.04;25.23
47592;BME280;33317;33.356;-117.184;2023-12-14T02:11:51;99352.71;;;28.26;25.25
47592;BME280;33317;33.356;-117.184;2023-12-14T02:14:22;99351.17;;;27.95;25.35
47592;BME280;33317;33.356;-117.184;2023-12-14T02:16:50;99353.21;;;27.92;25.47
47592;BME280;33317;33.356;-117.184;2023-12-14T02:19:19;99354.29;;;27.96;25.45
47592;BME280;33317;33.356;-117.184;2023-12-14T02:21:48;99360.39;;;28.12;25.54
47592;BME280;33317;33.356;-117.184;2023-12-14T02:24:17;99363.66;;;28.13;25.56
47592;BME280;33317;33.356;-117.184;2023-12-14T02:26:45;99371.79;;;28.07;25.51
47592;BME280;33317;33.356;-117.184;2023-12-14T02:29:13;99373.05;;;27.77;25.56
47592;BME280;33317;33.356;-117.184;2023-12-14T02:31:43;99377.30;;;28.21;25.50
47592;BME280;33317;33.356;-117.184;2023-12-14T02:34:11;99375.36;;;27.88;25.67
47592;BME280;33317;33.356;-117.184;2023-12-14T02:36:39;99379.51;;;27.59;25.68
47592;BME280;33317;33.356;-117.184;2023-12-14T02:39:08;99383.36;;;27.77;25.76
47592;BME280;33317;33.356;-117.184;2023-12-14T02:41:36;99387.46;;;27.78;25.84
47592;BME280;33317;33.356;-117.184;2023-12-14T02:44:06;99388.28;;;27.73;25.80
47592;BME280;33317;33.356;-117.184;2023-12-14T02:46:34;99384.68;;;27.70;25.93
47592;BME280;33317;33.356;-117.184;2023-12-14T02:49:03;99385.79;;;27.30;26.02
47592;BME280;33317;33.356;-117.184;2023-12-14T02:51:32;99387.45;;;27.62;25.95
47592;BME280;33317;33.356;-117.184;2023-12-14T02:54:00;99389.74;;;27.79;25.91
47592;BME280;33317;33.356;-117.184;2023-12-14T02:56:30;99392.91;;;27.26;25.97
47592;BME280;33317;33.356;-117.184;2023-12-14T02:58:58;99398.03;;;27.53;25.86
47592;BME280;33317;33.356;-117.184;2023-12-14T03:01:26;99401.54;;;27.47;25.92
47592;BME280;33317;33.356;-117.184;2023-12-14T03:03:54;99400.78;;;27.59;26.05
47592;BME280;33317;33.356;-117.184;2023-12-14T03:06:23;99396.42;;;27.38;26.36
47592;BME280;33317;33.356;-117.184;2023-12-14T03:08:51;99394.43;;;27.10;26.39
47592;BME280;33317;33.356;-117.184;2023-12-14T03:11:23;99397.96;;;27.39;26.23
47592;BME280;33317;33.356;-117.184;2023-12-14T03:13:51;99395.43;;;27.36;26.29
47592;BME280;33317;33.356;-117.184;2023-12-14T03:16:20;99397.45;;;27.14;26.13
47592;BME280;33317;33.356;-117.184;2023-12-14T03:18:48;99403.48;;;27.16;26.15
47592;BME280;33317;33.356;-117.184;2023-12-14T03:21:16;99407.58;;;27.16;26.16
47592;BME280;33317;33.356;-117.184;2023-12-14T03:23:45;99410.29;;;27.32;26.08
47592;BME280;33317;33.356;-117.184;2023-12-14T03:26:13;99413.93;;;27.31;26.10
47592;BME280;33317;33.356;-117.184;2023-12-14T03:28:43;99414.70;;;27.30;26.20
47592;BME280;33317;33.356;-117.184;2023-12-14T03:31:12;99416.71;;;27.24;26.28
47592;BME280;33317;33.356;-117.184;2023-12-14T03:33:41;99417.53;;;27.17;26.15
47592;BME280;33317;33.356;-117.184;2023-12-14T03:36:11;99421.87;;;27.16;26.11
47592;BME280;33317;33.356;-117.184;2023-12-14T03:38:39;99429.96;;;26.96;26.09
47592;BME280;33317;33.356;-117.184;2023-12-14T03:41:07;99438.33;;;26.96;26.41
47592;BME280;33317;33.356;-117.184;2023-12-14T03:43:36;99437.98;;;26.93;26.48
47592;BME280;33317;33.356;-117.184;2023-12-14T03:46:05;99430.75;;;26.86;26.21
47592;BME280;33317;33.356;-117.184;2023-12-14T03:48:34;99436.61;;;26.63;26.42
47592;BME280;33317;33.356;-117.184;2023-12-14T03:51:05;99440.62;;;27.13;26.09
47592;BME280;33317;33.356;-117.184;2023-12-14T03:53:33;99441.71;;;26.71;26.65
47592;BME280;33317;33.356;-117.184;2023-12-14T03:56:03;99439.49;;;27.02;26.25
47592;BME280;33317;33.356;-117.184;2023-12-14T03:58:31;99439.08;;;26.95;26.37
47592;BME280;33317;33.356;-117.184;2023-12-14T04:01:00;99441.45;;;26.66;26.60
47592;BME280;33317;33.356;-117.184;2023-12-14T04:03:28;99445.28;;;26.96;26.65
47592;BME280;33317;33.356;-117.184;2023-12-14T04:05:57;99453.08;;;26.41;26.67
47592;BME280;33317;33.356;-117.184;2023-12-14T04:08:25;99453.88;;;26.30;26.71
47592;BME280;33317;33.356;-117.184;2023-12-14T04:10:53;99456.61;;;26.22;27.24
47592;BME280;33317;33.356;-117.184;2023-12-14T04:13:24;99457.75;;;25.97;27.07
47592;BME280;33317;33.356;-117.184;2023-12-14T04:15:52;99458.37;;;26.14;27.60
47592;BME280;33317;33.356;-117.184;2023-12-14T04:18:22;99459.66;;;25.71;27.37
47592;BME280;33317;33.356;-117.184;2023-12-14T04:20:50;99464.03;;;25.65;27.50
47592;BME280;33317;33.356;-117.184;2023-12-14T04:23:18;99462.81;;;25.76;27.60
47592;BME280;33317;33.356;-117.184;2023-12-14T04:25:47;99465.80;;;25.79;27.62
47592;BME280;33317;33.356;-117.184;2023-12-14T04:28:15;99469.31;;;25.66;27.79
47592;BME280;33317;33.356;-117.184;2023-12-14T04:30:45;99474.11;;;25.95;27.41
47592;BME280;33317;33.356;-117.184;2023-12-14T04:33:13;99478.82;;;25.58;27.90
47592;BME280;33317;33.356;-117.184;2023-12-14T04:35:42;99472.87;;;26.07;27.52
47592;BME280;33317;33.356;-117.184;2023-12-14T04:38:10;99473.63;;;25.83;27.42
47592;BME280;33317;33.356;-117.184;2023-12-14T04:40:39;99476.12;;;25.69;27.26
47592;BME280;33317;33.356;-117.184;2023-12-14T04:43:08;99479.88;;;26.20;27.03
47592;BME280;33317;33.356;-117.184;2023-12-14T04:45:36;99481.11;;;25.70;27.22
47592;BME280;33317;33.356;-117.184;2023-12-14T04:48:05;99482.04;;;26.00;27.11
47592;BME280;33317;33.356;-117.184;2023-12-14T04:50:33;99483.49;;;26.10;26.94
47592;BME280;33317;33.356;-117.184;2023-12-14T04:53:02;99480.73;;;25.74;27.53
47592;BME280;33317;33.356;-117.184;2023-12-14T04:55:31;99481.07;;;25.76;27.45
47592;BME280;33317;33.356;-117.184;2023-12-14T04:57:59;99484.35;;;25.32;28.17
47592;BME280;33317;33.356;-117.184;2023-12-14T05:00:28;99484.75;;;25.54;27.87
47592;BME280;33317;33.356;-117.184;2023-12-14T05:02:58;99484.12;;;25.73;27.67
47592;BME280;33317;33.356;-117.184;2023-12-14T05:05:27;99484.61;;;25.79;27.22
47592;BME280;33317;33.356;-117.184;2023-12-14T05:07:56;99487.39;;;26.00;27.09
47592;BME280;33317;33.356;-117.184;2023-12-14T05:10:24;99486.16;;;26.09;27.22
47592;BME280;33317;33.356;-117.184;2023-12-14T05:12:52;99492.49;;;25.21;27.67
47592;BME280;33317;33.356;-117.184;2023-12-14T05:15:20;99496.70;;;25.56;27.87
47592;BME280;33317;33.356;-117.184;2023-12-14T05:17:50;99496.22;;;25.59;27.39
47592;BME280;33317;33.356;-117.184;2023-12-14T05:20:18;99496.20;;;25.80;27.39
47592;BME280;33317;33.356;-117.184;2023-12-14T05:22:47;99499.82;;;25.22;27.87
47592;BME280;33317;33.356;-117.184;2023-12-14T05:25:15;99502.53;;;25.19;28.13
47592;BME280;33317;33.356;-117.184;2023-12-14T05:27:43;99503.70;;;25.18;27.91
47592;BME280;33317;33.356;-117.184;2023-12-14T05:30:13;99508.63;;;25.45;27.59
47592;BME280;33317;33.356;-117.184;2023-12-14T05:32:41;99510.61;;;25.50;27.55
47592;BME280;33317;33.356;-117.184;2023-12-14T05:35:09;99515.78;;;25.17;27.93
47592;BME280;33317;33.356;-117.184;2023-12-14T05:37:39;99517.25;;;25.00;28.14
47592;BME280;33317;33.356;-117.184;2023-12-14T05:40:09;99520.98;;;25.31;28.18
47592;BME280;33317;33.356;-117.184;2023-12-14T05:42:38;99524.94;;;24.62;28.72
47592;BME280;33317;33.356;-117.184;2023-12-14T05:45:07;99522.86;;;24.96;28.26
47592;BME280;33317;33.356;-117.184;2023-12-14T05:47:35;99524.86;;;25.09;28.12
47592;BME280;33317;33.356;-117.184;2023-12-14T05:50:04;99523.25;;;25.29;27.86
47592;BME280;33317;33.356;-117.184;2023-12-14T05:52:33;99527.13;;;24.92;28.15
47592;BME280;33317;33.356;-117.184;2023-12-14T05:55:02;99529.79;;;24.59;28.66
47592;BME280;33317;33.356;-117.184;2023-12-14T05:57:32;99527.17;;;25.40;27.64
47592;BME280;33317;33.356;-117.184;2023-12-14T06:00:00;99530.89;;;24.65;28.42
47592;BME280;33317;33.356;-117.184;2023-12-14T06:02:29;99529.77;;;25.16;28.06
47592;BME280;33317;33.356;-117.184;2023-12-14T06:04:57;99523.09;;;25.46;27.55
47592;BME280;33317;33.356;-117.184;2023-12-14T06:07:26;99526.12;;;25.44;27.63
47592;BME280;33317;33.356;-117.184;2023-12-14T06:09:55;99527.31;;;25.36;27.80
47592;BME280;33317;33.356;-117.184;2023-12-14T06:12:23;99529.00;;;25.50;27.54
47592;BME280;33317;33.356;-117.184;2023-12-14T06:14:52;99526.38;;;25.08;28.06
47592;BME280;33317;33.356;-117.184;2023-12-14T06:17:21;99529.01;;;25.04;28.06
47592;BME280;33317;33.356;-117.184;2023-12-14T06:19:49;99531.06;;;24.77;28.32
47592;BME280;33317;33.356;-117.184;2023-12-14T06:22:18;99533.13;;;24.82;28.38
47592;BME280;33317;33.356;-117.184;2023-12-14T06:24:46;99535.19;;;24.83;28.22
47592;BME280;33317;33.356;-117.184;2023-12-14T06:27:15;99535.96;;;24.85;28.57
47592;BME280;33317;33.356;-117.184;2023-12-14T06:29:43;99536.18;;;25.00;28.08
47592;BME280;33317;33.356;-117.184;2023-12-14T06:32:11;99539.98;;;25.16;28.36
47592;BME280;33317;33.356;-117.184;2023-12-14T06:34:40;99543.37;;;24.55;28.76
47592;BME280;33317;33.356;-117.184;2023-12-14T06:37:08;99548.13;;;24.62;28.51
47592;BME280;33317;33.356;-117.184;2023-12-14T06:39:37;99550.94;;;24.44;28.94
47592;BME280;33317;33.356;-117.184;2023-12-14T06:42:05;99550.67;;;25.05;28.27
47592;BME280;33317;33.356;-117.184;2023-12-14T06:44:34;99554.95;;;24.88;28.65
47592;BME280;33317;33.356;-117.184;2023-12-14T06:47:03;99557.26;;;24.67;28.58
47592;BME280;33317;33.356;-117.184;2023-12-14T06:49:31;99560.18;;;24.36;28.90
47592;BME280;33317;33.356;-117.184;2023-12-14T06:51:59;99558.66;;;24.77;28.34
47592;BME280;33317;33.356;-117.184;2023-12-14T06:54:28;99562.28;;;24.74;28.28
47592;BME280;33317;33.356;-117.184;2023-12-14T06:56:56;99564.42;;;24.82;28.34
47592;BME280;33317;33.356;-117.184;2023-12-14T06:59:25;99569.09;;;24.65;28.61
47592;BME280;33317;33.356;-117.184;2023-12-14T07:01:53;99571.03;;;24.53;28.72
47592;BME280;33317;33.356;-117.184;2023-12-14T07:04:21;99575.87;;;24.36;28.51
47592;BME280;33317;33.356;-117.184;2023-12-14T07:06:51;99578.68;;;24.41;28.78
47592;BME280;33317;33.356;-117.184;2023-12-14T07:09:20;99579.76;;;24.33;28.70
47592;BME280;33317;33.356;-117.184;2023-12-14T07:11:48;99579.64;;;24.46;28.64
47592;BME280;33317;33.356;-117.184;2023-12-14T07:14:16;99581.04;;;24.49;28.53
47592;BME280;33317;33.356;-117.184;2023-12-14T07:16:45;99576.50;;;23.81;29.18
47592;BME280;33317;33.356;-117.184;2023-12-14T07:19:13;99572.12;;;23.78;28.82
47592;BME280;33317;33.356;-117.184;2023-12-14T07:21:42;99576.72;;;23.57;29.47
47592;BME280;33317;33.356;-117.184;2023-12-14T07:24:10;99579.55;;;23.66;29.83
47592;BME280;33317;33.356;-117.184;2023-12-14T07:26:39;99582.85;;;23.05;30.50
47592;BME280;33317;33.356;-117.184;2023-12-14T07:29:07;99580.99;;;23.77;29.61
47592;BME280;33317;33.356;-117.184;2023-12-14T07:31:36;99582.38;;;22.92;30.34
47592;BME280;33317;33.356;-117.184;2023-12-14T07:34:04;99581.48;;;23.30;30.11
47592;BME280;33317;33.356;-117.184;2023-12-14T07:36:32;99581.76;;;23.39;30.00
47592;BME280;33317;33.356;-117.184;2023-12-14T07:39:01;99581.46;;;22.78;30.81
47592;BME280;33317;33.356;-117.184;2023-12-14T07:41:31;99579.26;;;22.94;30.57
47592;BME280;33317;33.356;-117.184;2023-12-14T07:43:59;99579.80;;;22.90;30.88
47592;BME280;33317;33.356;-117.184;2023-12-14T07:46:27;99580.02;;;22.54;30.96
47592;BME280;33317;33.356;-117.184;2023-12-14T07:48:55;99577.59;;;22.58;31.24
47592;BME280;33317;33.356;-117.184;2023-12-14T07:51:24;99576.05;;;23.26;30.68
47592;BME280;33317;33.356;-117.184;2023-12-14T07:53:52;99573.11;;;23.00;30.32
47592;BME280;33317;33.356;-117.184;2023-12-14T07:56:21;99570.82;;;22.21;31.06
47592;BME280;33317;33.356;-117.184;2023-12-14T07:58:49;99570.92;;;22.39;31.10
47592;BME280;33317;33.356;-117.184;2023-12-14T08:01:17;99568.99;;;23.21;30.26
47592;BME280;33317;33.356;-117.184;2023-12-14T08:03:46;99571.27;;;22.51;30.56
47592;BME280;33317;33.356;-117.184;2023-12-14T08:06:14;99572.57;;;22.34;31.00
47592;BME280;33317;33.356;-117.184;2023-12-14T08:08:43;99572.91;;;22.69;30.61
47592;BME280;33317;33.356;-117.184;2023-12-14T08:11:11;99572.24;;;22.08;31.15
47592;BME280;33317;33.356;-117.184;2023-12-14T08:13:40;99571.39;;;22.82;30.62
47592;BME280;33317;33.356;-117.184;2023-12-14T08:16:08;99577.29;;;22.15;31.46
47592;BME280;33317;33.356;-117.184;2023-12-14T08:18:36;99580.27;;;21.68;31.76
47592;BME280;33317;33.356;-117.184;2023-12-14T08:21:05;99580.05;;;21.80;31.60
47592;BME280;33317;33.356;-117.184;2023-12-14T08:23:33;99579.33;;;22.21;31.36
47592;BME280;33317;33.356;-117.184;2023-12-14T08:26:01;99574.61;;;22.12;31.65
47592;BME280;33317;33.356;-117.184;2023-12-14T08:28:30;99578.56;;;21.87;31.66
47592;BME280;33317;33.356;-117.184;2023-12-14T08:30:58;99575.42;;;22.30;31.28
47592;BME280;33317;33.356;-117.184;2023-12-14T08:33:27;99573.85;;;21.62;31.88
47592;BME280;33317;33.356;-117.184;2023-12-14T08:35:56;99573.95;;;21.56;32.01
47592;BME280;33317;33.356;-117.184;2023-12-14T08:38:24;99579.58;;;21.73;31.76
47592;BME280;33317;33.356;-117.184;2023-12-14T08:40:53;99580.18;;;21.62;31.68
47592;BME280;33317;33.356;-117.184;2023-12-14T08:43:21;99582.30;;;21.70;31.94
47592;BME280;33317;33.356;-117.184;2023-12-14T08:45:49;99584.30;;;21.57;31.93
47592;BME280;33317;33.356;-117.184;2023-12-14T08:48:19;99586.42;;;21.03;32.38
47592;BME280;33317;33.356;-117.184;2023-12-14T08:50:47;99586.60;;;21.26;32.06
47592;BME280;33317;33.356;-117.184;2023-12-14T08:53:16;99587.46;;;21.63;31.88
47592;BME280;33317;33.356;-117.184;2023-12-14T08:55:44;99586.88;;;21.83;31.67
47592;BME280;33317;33.356;-117.184;2023-12-14T08:58:13;99590.48;;;21.22;32.37
47592;BME280;33317;33.356;-117.184;2023-12-14T09:00:41;99584.98;;;21.75;31.71
47592;BME280;33317;33.356;-117.184;2023-12-14T09:03:09;99585.88;;;22.05;31.24
47592;BME280;33317;33.356;-117.184;2023-12-14T09:05:38;99586.53;;;21.83;31.57
47592;BME280;33317;33.356;-117.184;2023-12-14T09:08:06;99591.82;;;21.57;31.58
47592;BME280;33317;33.356;-117.184;2023-12-14T09:10:34;99587.46;;;21.91;31.42
47592;BME280;33317;33.356;-117.184;2023-12-14T09:13:02;99593.52;;;21.30;32.47
47592;BME280;33317;33.356;-117.184;2023-12-14T09:15:31;99594.90;;;20.94;32.58
47592;BME280;33317;33.356;-117.184;2023-12-14T09:17:59;99599.61;;;20.64;32.84
47592;BME280;33317;33.356;-117.184;2023-12-14T09:20:28;99605.66;;;21.23;32.50
47592;BME280;33317;33.356;-117.184;2023-12-14T09:22:56;99610.69;;;21.14;32.74
47592;BME280;33317;33.356;-117.184;2023-12-14T09:25:25;99614.38;;;20.63;32.71
47592;BME280;33317;33.356;-117.184;2023-12-14T09:27:53;99609.59;;;20.82;32.89
47592;BME280;33317;33.356;-117.184;2023-12-14T09:30:22;99606.23;;;20.44;32.94
47592;BME280;33317;33.356;-117.184;2023-12-14T09:32:50;99608.91;;;20.32;32.80
47592;BME280;33317;33.356;-117.184;2023-12-14T09:35:19;99611.42;;;20.27;33.81
47592;BME280;33317;33.356;-117.184;2023-12-14T09:37:47;99612.08;;;20.59;33.09
47592;BME280;33317;33.356;-117.184;2023-12-14T09:40:15;99615.01;;;20.16;33.77
47592;BME280;33317;33.356;-117.184;2023-12-14T09:42:44;99617.96;;;20.45;33.32
47592;BME280;33317;33.356;-117.184;2023-12-14T09:45:13;99617.59;;;20.37;33.24
47592;BME280;33317;33.356;-117.184;2023-12-14T09:47:42;99616.25;;;20.44;33.10
47592;BME280;33317;33.356;-117.184;2023-12-14T09:50:10;99613.34;;;20.41;32.70
47592;BME280;33317;33.356;-117.184;2023-12-14T09:52:38;99612.81;;;20.18;33.26
47592;BME280;33317;33.356;-117.184;2023-12-14T09:55:07;99614.22;;;20.54;32.71
47592;BME280;33317;33.356;-117.184;2023-12-14T09:57:35;99615.45;;;20.25;33.36
47592;BME280;33317;33.356;-117.184;2023-12-14T10:00:04;99616.30;;;20.44;33.20
47592;BME280;33317;33.356;-117.184;2023-12-14T10:02:33;99618.40;;;20.09;33.65
47592;BME280;33317;33.356;-117.184;2023-12-14T10:05:01;99618.03;;;20.04;33.58
47592;BME280;33317;33.356;-117.184;2023-12-14T10:07:31;99621.37;;;20.02;33.15
47592;BME280;33317;33.356;-117.184;2023-12-14T10:10:10;99619.28;;;19.99;33.52
47592;BME280;33317;33.356;-117.184;2023-12-14T10:12:51;99616.38;;;19.98;33.82
47592;BME280;33317;33.356;-117.184;2023-12-14T10:15:19;99615.59;;;20.04;33.32
47592;BME280;33317;33.356;-117.184;2023-12-14T10:17:48;99613.54;;;20.77;32.31
47592;BME280;33317;33.356;-117.184;2023-12-14T10:20:20;99615.03;;;20.20;32.88
47592;BME280;33317;33.356;-117.184;2023-12-14T10:22:49;99617.71;;;20.35;32.91
47592;BME280;33317;33.356;-117.184;2023-12-14T10:25:19;99618.27;;;20.40;32.57
47592;BME280;33317;33.356;-117.184;2023-12-14T10:27:47;99621.44;;;20.51;32.60
47592;BME280;33317;33.356;-117.184;2023-12-14T10:30:16;99620.01;;;20.70;32.18
47592;BME280;33317;33.356;-117.184;2023-12-14T10:32:44;99625.64;;;20.01;33.35
47592;BME280;33317;33.356;-117.184;2023-12-14T10:35:13;99627.29;;;20.13;33.09
47592;BME280;33317;33.356;-117.184;2023-12-14T10:37:42;99624.11;;;19.47;33.75
47592;BME280;33317;33.356;-117.184;2023-12-14T10:40:11;99624.00;;;20.08;33.06
47592;BME280;33317;33.356;-117.184;2023-12-14T10:42:43;99621.43;;;20.18;32.83
47592;BME280;33317;33.356;-117.184;2023-12-14T10:45:15;99618.73;;;19.51;33.06
47592;BME280;33317;33.356;-117.184;2023-12-14T10:47:45;99624.31;;;19.76;33.01
47592;BME280;33317;33.356;-117.184;2023-12-14T10:50:13;99621.42;;;19.29;33.98
47592;BME280;33317;33.356;-117.184;2023-12-14T10:52:42;99616.67;;;18.94;34.41
47592;BME280;33317;33.356;-117.184;2023-12-14T10:55:17;99619.82;;;19.65;32.90
47592;BME280;33317;33.356;-117.184;2023-12-14T10:57:49;99621.30;;;19.00;34.37
47592;BME280;33317;33.356;-117.184;2023-12-14T11:00:19;99623.93;;;19.01;34.21
47592;BME280;33317;33.356;-117.184;2023-12-14T11:02:48;99624.49;;;19.24;33.93
47592;BME280;33317;33.356;-117.184;2023-12-14T11:05:17;99622.97;;;19.12;34.33
47592;BME280;33317;33.356;-117.184;2023-12-14T11:07:47;99622.06;;;19.37;34.00
47592;BME280;33317;33.356;-117.184;2023-12-14T11:10:20;99619.43;;;19.27;34.26
47592;BME280;33317;33.356;-117.184;2023-12-14T11:12:54;99620.34;;;19.75;33.69
47592;BME280;33317;33.356;-117.184;2023-12-14T11:15:23;99616.97;;;19.46;33.13
47592;BME280;33317;33.356;-117.184;2023-12-14T11:18:28;99619.28;;;19.74;32.77
47592;BME280;33317;33.356;-117.184;2023-12-14T11:20:58;99621.48;;;19.19;33.69
47592;BME280;33317;33.356;-117.184;2023-12-14T11:23:32;99624.09;;;18.82;33.73
47592;BME280;33317;33.356;-117.184;2023-12-14T11:26:02;99624.68;;;19.12;33.55
47592;BME280;33317;33.356;-117.184;2023-12-14T11:28:32;99627.10;;;19.28;32.92
47592;BME280;33317;33.356;-117.184;2023-12-14T11:31:01;99625.66;;;19.18;33.50
47592;BME280;33317;33.356;-117.184;2023-12-14T11:33:31;99623.83;;;19.09;33.30
47592;BME280;33317;33.356;-117.184;2023-12-14T11:36:00;99624.72;;;19.00;34.04
47592;BME280;33317;33.356;-117.184;2023-12-14T11:38:30;99626.03;;;18.69;34.02
47592;BME280;33317;33.356;-117.184;2023-12-14T11:40:59;99632.68;;;18.91;34.27
47592;BME280;33317;33.356;-117.184;2023-12-14T11:43:27;99630.36;;;18.77;34.26
47592;BME280;33317;33.356;-117.184;2023-12-14T11:45:56;99629.10;;;18.99;34.13
47592;BME280;33317;33.356;-117.184;2023-12-14T11:48:24;99622.95;;;18.85;33.96
47592;BME280;33317;33.356;-117.184;2023-12-14T11:50:53;99627.84;;;19.15;33.89
47592;BME280;33317;33.356;-117.184;2023-12-14T11:53:21;99631.02;;;18.56;34.76
47592;BME280;33317;33.356;-117.184;2023-12-14T11:55:49;99632.93;;;18.63;34.67
47592;BME280;33317;33.356;-117.184;2023-12-14T11:58:19;99631.31;;;18.82;33.74
47592;BME280;33317;33.356;-117.184;2023-12-14T12:00:47;99632.10;;;19.11;33.88
47592;BME280;33317;33.356;-117.184;2023-12-14T12:03:17;99635.47;;;19.17;33.48
47592;BME280;33317;33.356;-117.184;2023-12-14T12:05:47;99639.24;;;19.00;33.28
47592;BME280;33317;33.356;-117.184;2023-12-14T12:08:16;99639.83;;;19.06;33.84
47592;BME280;33317;33.356;-117.184;2023-12-14T12:10:46;99642.83;;;18.84;33.53
47592;BME280;33317;33.356;-117.184;2023-12-14T12:13:16;99639.24;;;19.11;33.34
47592;BME280;33317;33.356;-117.184;2023-12-14T12:15:45;99635.50;;;19.04;33.27
47592;BME280;33317;33.356;-117.184;2023-12-14T12:18:15;99636.57;;;19.28;32.88
47592;BME280;33317;33.356;-117.184;2023-12-14T12:20:43;99641.03;;;19.06;33.21
47592;BME280;33317;33.356;-117.184;2023-12-14T12:23:12;99643.63;;;19.12;32.88
47592;BME280;33317;33.356;-117.184;2023-12-14T12:25:40;99642.90;;;18.95;32.90
47592;BME280;33317;33.356;-117.184;2023-12-14T12:28:09;99645.74;;;19.45;32.69
47592;BME280;33317;33.356;-117.184;2023-12-14T12:30:37;99647.84;;;18.76;32.93
47592;BME280;33317;33.356;-117.184;2023-12-14T12:33:05;99649.90;;;18.81;33.52
47592;BME280;33317;33.356;-117.184;2023-12-14T12:35:34;99647.14;;;19.26;33.01
47592;BME280;33317;33.356;-117.184;2023-12-14T12:38:02;99649.70;;;18.70;33.42